createdAt,value
2023-03-30T00:00:27.394Z,100289.56
2023-03-30T00:02:54.286Z,100282.75
2023-03-30T00:05:23.746Z,100278.00
2023-03-30T00:07:50.958Z,100276.31
2023-03-30T00:10:19.379Z,100270.72
2023-03-30T00:12:48.252Z,100257.84
2023-03-30T00:15:17.778Z,100241.88
2023-03-30T00:17:45.471Z,100233.59
2023-03-30T00:20:14.421Z,100244.41
2023-03-30T00:22:42.515Z,100241.13
2023-03-30T00:25:14.200Z,100233.94
2023-03-30T00:27:41.323Z,100241.97
2023-03-30T00:30:13.496Z,100233.50
2023-03-30T00:32:41.238Z,100246.56
2023-03-30T00:35:08.074Z,100241.53
2023-03-30T00:37:37.417Z,100235.56
2023-03-30T00:40:09.397Z,100238.44
2023-03-30T00:42:37.426Z,100232.75
2023-03-30T00:45:16.896Z,100238.59
2023-03-30T00:48:27.473Z,100235.91
2023-03-30T00:50:58.764Z,100231.97
2023-03-30T00:53:33.518Z,100219.13
2023-03-30T00:56:02.288Z,100217.53
2023-03-30T00:58:31.231Z,100214.81
2023-03-30T01:01:01.881Z,100199.91
2023-03-30T01:03:33.316Z,100195.13
2023-03-30T01:06:02.592Z,100187.84
2023-03-30T01:08:32.593Z,100179.28
2023-03-30T01:11:02.661Z,100171.91
2023-03-30T01:13:32.204Z,100165.53
2023-03-30T01:16:13.530Z,100178.31
2023-03-30T01:19:25.310Z,100182.34
2023-03-30T01:22:04.650Z,100183.97
2023-03-30T01:24:42.990Z,100175.00
2023-03-30T01:27:30.961Z,100188.97
2023-03-30T01:30:15.020Z,100200.28
2023-03-30T01:33:06.086Z,100192.06
2023-03-30T01:35:51.463Z,100193.56
2023-03-30T01:38:51.911Z,100194.00
2023-03-30T01:41:52.404Z,100186.75
2023-03-30T01:44:44.366Z,100193.06
2023-03-30T01:47:19.468Z,100180.38
2023-03-30T01:49:52.689Z,100179.66
2023-03-30T01:52:24.932Z,100178.16
2023-03-30T01:54:58.243Z,100146.97
2023-03-30T01:57:35.695Z,100135.50
2023-03-30T02:00:16.383Z,100136.63
2023-03-30T02:02:48.380Z,100137.34
2023-03-30T02:05:18.076Z,100126.41
2023-03-30T02:07:53.046Z,100118.22
2023-03-30T02:10:24.245Z,100133.97
2023-03-30T02:12:52.462Z,100136.69
2023-03-30T02:15:19.747Z,100161.16
2023-03-30T02:17:47.813Z,100159.84
2023-03-30T02:20:17.645Z,100152.13
2023-03-30T02:22:45.929Z,100143.34
2023-03-30T02:25:13.417Z,100141.66
2023-03-30T02:27:42.072Z,100159.69
2023-03-30T02:30:09.860Z,100164.50
2023-03-30T02:32:56.808Z,100161.16
2023-03-30T02:35:35.299Z,100168.16
2023-03-30T02:38:32.336Z,100166.56
2023-03-30T02:41:23.655Z,100169.59
2023-03-30T02:44:13.113Z,100171.06
2023-03-30T02:47:00.355Z,100155.47
2023-03-30T02:49:54.753Z,100167.69
2023-03-30T02:52:41.480Z,100159.94
2023-03-30T02:55:24.357Z,100158.88
2023-03-30T02:58:09.086Z,100170.97
2023-03-30T03:00:49.164Z,100170.72
2023-03-30T03:03:35.407Z,100162.75
2023-03-30T03:06:03.119Z,100166.50
2023-03-30T03:08:34.389Z,100167.25
2023-03-30T03:11:00.996Z,100172.31
2023-03-30T03:13:29.361Z,100161.53
2023-03-30T03:15:56.997Z,100157.16
2023-03-30T03:18:24.457Z,100163.94
2023-03-30T03:20:51.199Z,100152.00
2023-03-30T03:23:17.701Z,100150.94
2023-03-30T03:25:44.156Z,100138.38
2023-03-30T03:28:11.053Z,100134.66
2023-03-30T03:30:37.839Z,100130.09
2023-03-30T03:33:04.585Z,100139.28
2023-03-30T03:35:34.421Z,100154.19
2023-03-30T03:38:00.935Z,100146.41
2023-03-30T03:40:27.393Z,100156.59
2023-03-30T03:42:53.902Z,100147.25
2023-03-30T03:45:20.412Z,100152.75
2023-03-30T03:47:46.990Z,100156.31
2023-03-30T03:50:13.672Z,100152.19
2023-03-30T03:52:40.228Z,100155.16
2023-03-30T03:55:07.819Z,100151.44
2023-03-30T03:57:34.276Z,100142.72
2023-03-30T04:00:00.772Z,100147.78
2023-03-30T04:02:28.046Z,100140.75
2023-03-30T04:04:55.398Z,100136.09
2023-03-30T04:07:21.940Z,100140.75
2023-03-30T04:09:48.460Z,100138.59
2023-03-30T04:12:14.966Z,100136.94
2023-03-30T04:14:41.540Z,100127.34
2023-03-30T04:17:08.037Z,100134.59
2023-03-30T04:19:36.187Z,100145.44
2023-03-30T04:22:06.041Z,100132.91
2023-03-30T04:24:36.392Z,100130.41
2023-03-30T04:27:03.847Z,100132.75
2023-03-30T04:29:30.815Z,100132.47
2023-03-30T04:32:02.827Z,100124.09
2023-03-30T04:34:31.041Z,100122.78
2023-03-30T04:36:58.083Z,100131.00
2023-03-30T04:39:26.946Z,100136.22
2023-03-30T04:41:54.197Z,100135.09
2023-03-30T04:44:22.013Z,100131.53
2023-03-30T04:46:48.640Z,100136.03
2023-03-30T04:49:15.710Z,100141.81
2023-03-30T04:51:43.089Z,100152.75
2023-03-30T04:54:09.558Z,100149.13
2023-03-30T04:56:36.196Z,100152.22
2023-03-30T04:59:02.635Z,100158.38
2023-03-30T05:01:29.155Z,100164.16
2023-03-30T05:03:56.141Z,100163.19
2023-03-30T05:06:22.830Z,100162.91
2023-03-30T05:08:49.445Z,100172.34
2023-03-30T05:11:15.985Z,100168.50
2023-03-30T05:13:42.530Z,100179.03
2023-03-30T05:16:09.442Z,100173.81
2023-03-30T05:18:36.521Z,100179.97
2023-03-30T05:21:03.345Z,100184.91
2023-03-30T05:23:30.170Z,100187.44
2023-03-30T05:25:56.586Z,100190.31
2023-03-30T05:28:23.210Z,100190.97
2023-03-30T05:30:59.445Z,100186.97
2023-03-30T05:33:26.096Z,100182.91
2023-03-30T05:35:52.620Z,100186.47
2023-03-30T05:38:19.236Z,100189.09
2023-03-30T05:40:46.163Z,100186.94
2023-03-30T05:43:12.677Z,100183.56
2023-03-30T05:45:39.221Z,100191.16
2023-03-30T05:48:07.024Z,100194.84
2023-03-30T05:50:33.693Z,100207.38
2023-03-30T05:53:01.455Z,100216.28
2023-03-30T05:55:28.260Z,100218.63
2023-03-30T05:57:55.165Z,100213.72
2023-03-30T06:00:22.920Z,100201.84
2023-03-30T06:02:49.832Z,100197.28
2023-03-30T06:05:16.401Z,100196.94
2023-03-30T06:07:43.435Z,100199.63
2023-03-30T06:10:10.523Z,100204.88
2023-03-30T06:12:39.372Z,100197.41
2023-03-30T06:15:09.151Z,100198.91
2023-03-30T06:17:36.794Z,100201.13
2023-03-30T06:20:09.389Z,100207.03
2023-03-30T06:22:36.510Z,100211.03
2023-03-30T06:25:03.397Z,100203.88
2023-03-30T06:27:33.006Z,100194.22
2023-03-30T06:29:59.556Z,100186.97
2023-03-30T06:32:27.050Z,100194.91
2023-03-30T06:34:53.827Z,100198.06
2023-03-30T06:37:21.176Z,100187.44
2023-03-30T06:39:47.662Z,100194.72
2023-03-30T06:42:14.213Z,100196.78
2023-03-30T06:44:40.631Z,100196.78
2023-03-30T06:47:07.644Z,100200.13
2023-03-30T06:49:34.284Z,100199.13
2023-03-30T06:52:04.013Z,100203.47
2023-03-30T06:54:32.172Z,100210.56
2023-03-30T06:56:58.702Z,100205.41
2023-03-30T06:59:25.181Z,100203.91
2023-03-30T07:01:51.717Z,100201.47
2023-03-30T07:04:18.363Z,100201.34
2023-03-30T07:06:44.842Z,100195.03
2023-03-30T07:09:12.925Z,100202.03
2023-03-30T07:11:39.523Z,100200.72
2023-03-30T07:14:06.078Z,100201.72
2023-03-30T07:16:32.718Z,100197.34
2023-03-30T07:18:59.490Z,100211.88
2023-03-30T07:21:26.129Z,100218.41
2023-03-30T07:23:52.634Z,100226.53
2023-03-30T07:26:20.565Z,100209.16
2023-03-30T07:28:47.007Z,100212.56
2023-03-30T07:31:14.337Z,100219.66
2023-03-30T07:33:41.392Z,100225.25
2023-03-30T07:36:08.709Z,100226.09
2023-03-30T07:38:35.306Z,100224.22
2023-03-30T07:41:06.358Z,100221.25
2023-03-30T07:43:32.851Z,100261.50
2023-03-30T07:45:59.377Z,100227.31
2023-03-30T07:48:25.985Z,100227.50
2023-03-30T07:51:03.207Z,100241.31
2023-03-30T07:53:30.068Z,100235.44
2023-03-30T07:55:56.556Z,100235.53
2023-03-30T07:58:23.083Z,100235.72
2023-03-30T08:00:50.619Z,100221.09
2023-03-30T08:03:18.151Z,100236.03
2023-03-30T08:05:52.692Z,100249.09
2023-03-30T08:08:19.150Z,100238.31
2023-03-30T08:10:46.344Z,100239.06
2023-03-30T08:13:13.210Z,100238.41
2023-03-30T08:15:39.862Z,100236.31
2023-03-30T08:18:08.257Z,100241.69
2023-03-30T08:20:38.608Z,100230.56
2023-03-30T08:23:06.166Z,100231.69
2023-03-30T08:25:33.052Z,100236.34
2023-03-30T08:27:59.562Z,100248.25
2023-03-30T08:30:26.516Z,100265.72
2023-03-30T08:32:57.098Z,100253.63
2023-03-30T08:35:24.022Z,100236.19
2023-03-30T08:37:50.869Z,100259.03
2023-03-30T08:40:19.323Z,100245.91
2023-03-30T08:42:56.611Z,100260.44
2023-03-30T08:45:23.261Z,100266.22
2023-03-30T08:47:52.195Z,100260.22
2023-03-30T08:50:31.570Z,100254.84
2023-03-30T08:52:58.586Z,100268.34
2023-03-30T08:55:38.572Z,100268.38
2023-03-30T08:58:12.574Z,100281.94
2023-03-30T09:00:57.461Z,100278.94
2023-03-30T09:03:44.973Z,100274.38
2023-03-30T09:06:21.869Z,100302.00
2023-03-30T09:08:49.519Z,100303.22
2023-03-30T09:11:30.183Z,100310.06
2023-03-30T09:14:01.569Z,100305.91
2023-03-30T09:16:33.683Z,100303.47
2023-03-30T09:19:03.276Z,100290.81
2023-03-30T09:21:32.710Z,100286.31
2023-03-30T09:24:01.057Z,100286.00
2023-03-30T09:26:50.461Z,100287.16
2023-03-30T09:29:20.019Z,100282.25
2023-03-30T09:31:59.725Z,100285.13
2023-03-30T09:34:29.264Z,100289.16
2023-03-30T09:37:21.692Z,100293.91
2023-03-30T09:39:49.845Z,100279.06
2023-03-30T09:42:24.617Z,100291.72
2023-03-30T09:45:07.253Z,100290.47
2023-03-30T09:47:36.779Z,100281.03
2023-03-30T09:50:08.007Z,100282.97
2023-03-30T09:52:38.707Z,100286.25
2023-03-30T09:55:32.357Z,100283.16
2023-03-30T09:58:11.206Z,100272.81
2023-03-30T10:00:37.999Z,100284.69
2023-03-30T10:03:06.618Z,100297.03
2023-03-30T10:05:36.441Z,100292.06
2023-03-30T10:08:21.231Z,100298.03
2023-03-30T10:10:57.607Z,100310.41
2023-03-30T10:13:32.245Z,100317.81
2023-03-30T10:16:06.117Z,100331.00
2023-03-30T10:18:45.116Z,100326.03
2023-03-30T10:21:15.129Z,100325.81
2023-03-30T10:23:44.925Z,100328.78
2023-03-30T10:26:16.184Z,100324.97
2023-03-30T10:28:57.280Z,100318.13
2023-03-30T10:31:28.030Z,100328.19
2023-03-30T10:34:00.779Z,100315.50
2023-03-30T10:36:37.681Z,100314.28
2023-03-30T10:39:06.443Z,100318.91
2023-03-30T10:41:33.009Z,100329.31
2023-03-30T10:44:09.960Z,100326.84
2023-03-30T10:46:37.308Z,100343.22
2023-03-30T10:49:30.339Z,100328.78
2023-03-30T10:51:59.794Z,100321.28
2023-03-30T10:54:44.912Z,100325.59
2023-03-30T10:57:16.113Z,100335.69
2023-03-30T10:59:54.993Z,100330.16
2023-03-30T11:02:54.521Z,100326.13
2023-03-30T11:05:22.695Z,100333.78
2023-03-30T11:08:15.525Z,100332.81
2023-03-30T11:10:46.997Z,100327.53
2023-03-30T11:13:36.363Z,100323.38
2023-03-30T11:16:10.773Z,100323.28
2023-03-30T11:18:42.805Z,100334.06
2023-03-30T11:21:27.127Z,100345.50
2023-03-30T11:24:02.460Z,100349.66
2023-03-30T11:26:33.574Z,100335.25
2023-03-30T11:29:18.214Z,100338.59
2023-03-30T11:32:03.001Z,100344.91
2023-03-30T11:34:43.236Z,100351.03
2023-03-30T11:37:36.483Z,100335.00
2023-03-30T11:40:16.406Z,100339.03
2023-03-30T11:42:43.541Z,100331.44
2023-03-30T11:45:34.676Z,100333.91
2023-03-30T11:48:11.791Z,100332.81
2023-03-30T11:50:54.233Z,100335.53
2023-03-30T11:53:32.354Z,100334.50
2023-03-30T11:56:07.929Z,100331.31
2023-03-30T11:58:38.645Z,100340.28
2023-03-30T12:01:26.692Z,100351.09
2023-03-30T12:04:08.012Z,100347.19
2023-03-30T12:06:41.979Z,100343.84
2023-03-30T12:09:21.375Z,100348.41
2023-03-30T12:12:16.013Z,100336.63
2023-03-30T12:14:56.367Z,100346.66
2023-03-30T12:17:41.355Z,100348.63
2023-03-30T12:20:15.327Z,100369.78
2023-03-30T12:22:51.702Z,100355.91
2023-03-30T12:25:55.648Z,100347.75
2023-03-30T12:28:29.827Z,100372.84
2023-03-30T12:31:07.785Z,100351.97
2023-03-30T12:33:36.776Z,100349.59
2023-03-30T12:36:28.035Z,100356.69
2023-03-30T12:39:02.093Z,100348.75
2023-03-30T12:41:38.170Z,100353.34
2023-03-30T12:44:09.069Z,100350.34
2023-03-30T12:46:45.655Z,100326.03
2023-03-30T12:49:24.234Z,100340.13
2023-03-30T12:52:02.694Z,100335.72
2023-03-30T12:54:44.285Z,100342.41
2023-03-30T12:57:17.357Z,100361.59
2023-03-30T12:59:59.742Z,100342.84
2023-03-30T13:02:55.236Z,100338.41
2023-03-30T13:05:39.760Z,100340.53
2023-03-30T13:08:10.541Z,100345.91
2023-03-30T13:10:40.877Z,100345.38
2023-03-30T13:13:44.770Z,100342.81
2023-03-30T13:16:13.976Z,100350.13
2023-03-30T13:18:53.290Z,100354.81
2023-03-30T13:21:19.665Z,100349.09
2023-03-30T13:24:04.361Z,100343.22
2023-03-30T13:26:41.702Z,100352.63
2023-03-30T13:29:11.678Z,100341.19
2023-03-30T13:32:03.987Z,100333.59
2023-03-30T13:34:58.516Z,100328.63
2023-03-30T13:38:14.570Z,100317.50
2023-03-30T13:41:03.923Z,100331.91
2023-03-30T13:43:51.209Z,100325.47
2023-03-30T13:46:22.248Z,100319.31
2023-03-30T13:49:07.490Z,100315.19
2023-03-30T13:51:37.983Z,100301.38
2023-03-30T13:54:14.301Z,100301.16
2023-03-30T13:56:46.410Z,100301.69
2023-03-30T13:59:26.128Z,100310.13
2023-03-30T14:01:56.613Z,100306.44
2023-03-30T14:04:23.994Z,100306.38
2023-03-30T14:06:52.407Z,100313.25
2023-03-30T14:09:24.982Z,100318.25
2023-03-30T14:11:59.581Z,100314.75
2023-03-30T14:14:29.651Z,100300.84
2023-03-30T14:16:59.032Z,100309.28
2023-03-30T14:19:31.855Z,100294.03
2023-03-30T14:22:09.053Z,100301.38
2023-03-30T14:24:36.217Z,100289.19
2023-03-30T14:27:12.325Z,100314.28
2023-03-30T14:29:47.355Z,100326.84
2023-03-30T14:32:16.734Z,100301.06
2023-03-30T14:34:48.590Z,100311.94
2023-03-30T14:37:21.541Z,100310.16
2023-03-30T14:39:56.849Z,100314.72
2023-03-30T14:42:33.752Z,100319.63
2023-03-30T14:45:01.096Z,100307.66
2023-03-30T14:47:28.872Z,100312.22
2023-03-30T14:50:02.306Z,100319.09
2023-03-30T14:52:38.469Z,100320.31
2023-03-30T14:55:09.909Z,100320.16
2023-03-30T14:57:40.458Z,100328.47
2023-03-30T15:00:17.606Z,100329.97
2023-03-30T15:02:46.035Z,100319.53
2023-03-30T15:05:17.518Z,100314.78
2023-03-30T15:07:48.074Z,100309.13
2023-03-30T15:10:37.305Z,100316.22
2023-03-30T15:13:07.397Z,100314.31
2023-03-30T15:15:34.169Z,100307.25
2023-03-30T15:18:03.304Z,100308.50
2023-03-30T15:20:32.821Z,100304.94
2023-03-30T15:23:00.205Z,100303.41
2023-03-30T15:25:35.735Z,100316.34
2023-03-30T15:28:07.056Z,100312.56
2023-03-30T15:30:44.136Z,100317.94
2023-03-30T15:33:29.377Z,100337.00
2023-03-30T15:35:56.213Z,100318.00
2023-03-30T15:38:35.918Z,100319.66
2023-03-30T15:41:03.018Z,100315.91
2023-03-30T15:43:33.468Z,100329.53
2023-03-30T15:46:10.863Z,100325.50
2023-03-30T15:48:46.118Z,100330.41
2023-03-30T15:51:16.831Z,100322.50
2023-03-30T15:53:53.757Z,100323.03
2023-03-30T15:56:47.815Z,100312.59
2023-03-30T15:59:17.003Z,100315.13
2023-03-30T16:02:01.120Z,100301.38
2023-03-30T16:04:31.590Z,100312.69
2023-03-30T16:06:58.249Z,100297.66
2023-03-30T16:09:24.693Z,100307.03
2023-03-30T16:11:51.262Z,100305.16
2023-03-30T16:14:22.436Z,100318.06
2023-03-30T16:16:50.980Z,100301.41
2023-03-30T16:19:20.217Z,100319.38
2023-03-30T16:21:46.897Z,100317.44
2023-03-30T16:24:13.625Z,100317.44
2023-03-30T16:26:40.290Z,100323.25
2023-03-30T16:29:21.616Z,100308.63
2023-03-30T16:31:49.381Z,100304.41
2023-03-30T16:34:16.026Z,100314.50
2023-03-30T16:36:43.030Z,100302.31
2023-03-30T16:39:38.844Z,100291.59
2023-03-30T16:42:05.300Z,100301.75
2023-03-30T16:44:31.837Z,100312.31
2023-03-30T16:46:58.280Z,100306.50
2023-03-30T16:49:26.019Z,100298.56
2023-03-30T16:51:55.076Z,100306.00
2023-03-30T16:54:31.198Z,100304.50
2023-03-30T16:56:59.198Z,100316.19
2023-03-30T16:59:29.268Z,100310.50
2023-03-30T17:01:56.335Z,100311.16
2023-03-30T17:04:22.938Z,100321.56
2023-03-30T17:06:49.536Z,100312.34
2023-03-30T17:09:18.745Z,100314.81
2023-03-30T17:11:46.875Z,100322.31
2023-03-30T17:14:13.950Z,100324.81
2023-03-30T17:16:40.787Z,100325.22
2023-03-30T17:19:11.804Z,100327.88
2023-03-30T17:21:38.424Z,100325.09
2023-03-30T17:24:05.150Z,100320.66
2023-03-30T17:26:31.637Z,100318.53
2023-03-30T17:28:58.082Z,100325.56
2023-03-30T17:31:24.585Z,100319.50
2023-03-30T17:33:51.124Z,100327.31
2023-03-30T17:36:23.274Z,100329.97
2023-03-30T17:38:51.906Z,100331.19
2023-03-30T17:41:20.334Z,100328.50
2023-03-30T17:43:48.097Z,100325.44
2023-03-30T17:46:17.204Z,100337.59
2023-03-30T17:48:44.139Z,100334.41
2023-03-30T17:51:11.020Z,100342.63
2023-03-30T17:53:37.571Z,100345.25
2023-03-30T17:56:04.292Z,100336.66
2023-03-30T17:58:36.371Z,100332.66
2023-03-30T18:01:07.356Z,100339.19
2023-03-30T18:03:34.321Z,100343.69
2023-03-30T18:06:02.325Z,100334.19
2023-03-30T18:08:29.557Z,100339.72
2023-03-30T18:10:57.937Z,100338.31
2023-03-30T18:13:25.771Z,100341.97
2023-03-30T18:15:56.369Z,100337.94
2023-03-30T18:18:26.462Z,100349.94
2023-03-30T18:20:55.623Z,100349.56
2023-03-30T18:23:22.929Z,100352.16
2023-03-30T18:25:49.955Z,100348.81
2023-03-30T18:28:27.279Z,100341.25
2023-03-30T18:30:57.241Z,100339.75
2023-03-30T18:33:24.845Z,100347.75
2023-03-30T18:35:53.193Z,100347.75
2023-03-30T18:38:21.786Z,100345.91
2023-03-30T18:40:52.063Z,100343.84
2023-03-30T18:43:18.809Z,100333.41
2023-03-30T18:45:48.649Z,100339.47
2023-03-30T18:48:17.984Z,100325.91
2023-03-30T18:50:49.320Z,100334.69
2023-03-30T18:53:18.485Z,100333.94
2023-03-30T18:55:47.809Z,100319.44
2023-03-30T18:58:20.971Z,100339.91
2023-03-30T19:00:48.947Z,100335.16
2023-03-30T19:03:16.699Z,100341.59
2023-03-30T19:05:45.095Z,100345.31
2023-03-30T19:08:13.479Z,100339.53
2023-03-30T19:10:41.989Z,100328.91
2023-03-30T19:13:12.702Z,100336.84
2023-03-30T19:15:39.156Z,100331.41
2023-03-30T19:18:06.150Z,100334.50
2023-03-30T19:20:37.710Z,100333.47
2023-03-30T19:23:04.520Z,100326.00
2023-03-30T19:25:31.030Z,100329.06
2023-03-30T19:28:04.003Z,100326.84
2023-03-30T19:30:32.496Z,100333.84
2023-03-30T19:33:02.397Z,100329.06
2023-03-30T19:35:29.746Z,100329.75
2023-03-30T19:37:56.350Z,100337.19
2023-03-30T19:40:24.103Z,100331.78
2023-03-30T19:42:51.613Z,100337.59
2023-03-30T19:45:20.815Z,100332.19
2023-03-30T19:47:47.586Z,100331.97
2023-03-30T19:50:17.967Z,100328.72
2023-03-30T19:52:50.786Z,100322.81
2023-03-30T19:55:19.652Z,100329.56
2023-03-30T19:57:46.235Z,100321.44
2023-03-30T20:00:18.158Z,100321.84
2023-03-30T20:02:47.405Z,100313.03
2023-03-30T20:05:15.536Z,100314.25
2023-03-30T20:07:44.813Z,100311.53
2023-03-30T20:10:18.723Z,100310.41
2023-03-30T20:12:46.654Z,100320.88
2023-03-30T20:15:13.206Z,100298.84
2023-03-30T20:17:40.153Z,100305.19
2023-03-30T20:20:13.882Z,100295.38
2023-03-30T20:22:43.092Z,100295.88
2023-03-30T20:25:12.500Z,100296.31
2023-03-30T20:27:40.017Z,100295.38
2023-03-30T20:30:07.057Z,100289.66
2023-03-30T20:32:34.634Z,100288.84
2023-03-30T20:35:01.416Z,100280.88
2023-03-30T20:37:28.023Z,100280.16
2023-03-30T20:40:03.264Z,100277.91
2023-03-30T20:42:34.108Z,100293.19
2023-03-30T20:45:01.158Z,100280.69
2023-03-30T20:47:31.035Z,100279.50
2023-03-30T20:49:58.723Z,100283.06
2023-03-30T20:52:25.955Z,100285.78
2023-03-30T20:54:52.889Z,100280.06
2023-03-30T20:57:21.297Z,100287.63
2023-03-30T20:59:48.390Z,100275.03
2023-03-30T21:02:15.793Z,100279.41
2023-03-30T21:04:45.096Z,100282.47
2023-03-30T21:07:12.188Z,100286.41
2023-03-30T21:09:39.332Z,100282.38
2023-03-30T21:12:07.093Z,100277.50
2023-03-30T21:14:33.599Z,100274.34
2023-03-30T21:17:00.088Z,100272.47
2023-03-30T21:19:26.714Z,100265.38
2023-03-30T21:21:53.413Z,100251.72
2023-03-30T21:24:20.085Z,100258.19
2023-03-30T21:26:46.532Z,100252.78
2023-03-30T21:29:13.059Z,100244.09
2023-03-30T21:31:39.568Z,100243.63
2023-03-30T21:34:12.026Z,100252.78
2023-03-30T21:36:39.227Z,100233.06
2023-03-30T21:39:05.763Z,100246.94
2023-03-30T21:41:32.233Z,100240.03
2023-03-30T21:43:58.694Z,100238.19
2023-03-30T21:46:26.590Z,100235.00
2023-03-30T21:48:54.468Z,100235.53
2023-03-30T21:51:24.551Z,100233.69
2023-03-30T21:53:52.399Z,100233.69
2023-03-30T21:56:22.315Z,100226.28
2023-03-30T21:58:49.370Z,100226.94
2023-03-30T22:01:17.067Z,100229.00
2023-03-30T22:03:44.951Z,100225.34
2023-03-30T22:06:13.249Z,100215.13
2023-03-30T22:08:40.344Z,100220.13
2023-03-30T22:11:11.162Z,100212.38
2023-03-30T22:13:37.741Z,100219.16
2023-03-30T22:16:10.738Z,100226.09
2023-03-30T22:18:37.409Z,100223.09
2023-03-30T22:21:06.542Z,100227.56
2023-03-30T22:23:33.517Z,100225.56
2023-03-30T22:26:00.353Z,100224.00
2023-03-30T22:28:27.212Z,100217.50
2023-03-30T22:30:54.096Z,100218.53
2023-03-30T22:33:20.755Z,100221.44
2023-03-30T22:35:48.259Z,100222.78
2023-03-30T22:38:16.299Z,100214.50
2023-03-30T22:40:42.966Z,100224.81
2023-03-30T22:43:10.713Z,100220.31
2023-03-30T22:45:37.659Z,100218.38
2023-03-30T22:48:06.343Z,100207.44
2023-03-30T22:50:34.060Z,100208.63
2023-03-30T22:53:00.958Z,100213.19
2023-03-30T22:55:27.807Z,100210.47
2023-03-30T22:57:56.823Z,100208.13
2023-03-30T23:00:23.733Z,100210.72
2023-03-30T23:02:50.894Z,100203.56
2023-03-30T23:05:21.454Z,100194.22
2023-03-30T23:07:49.514Z,100191.28
2023-03-30T23:10:19.477Z,100172.41
2023-03-30T23:12:46.446Z,100156.34
2023-03-30T23:15:14.616Z,100156.53
2023-03-30T23:17:41.654Z,100146.63
2023-03-30T23:20:10.291Z,100159.94
2023-03-30T23:22:37.976Z,100162.31
2023-03-30T23:25:05.634Z,100154.22
2023-03-30T23:27:32.407Z,100169.94
2023-03-30T23:29:58.967Z,100152.72
2023-03-30T23:32:25.657Z,100142.66
2023-03-30T23:34:52.206Z,100147.22
2023-03-30T23:37:18.797Z,100137.59
2023-03-30T23:39:45.319Z,100134.38
2023-03-30T23:42:11.855Z,100122.56
2023-03-30T23:44:38.358Z,100124.59
2023-03-30T23:47:05.089Z,100112.28
2023-03-30T23:49:31.699Z,100103.72
2023-03-30T23:51:58.204Z,100102.69
2023-03-30T23:54:25.261Z,100099.63
2023-03-30T23:56:57.115Z,100090.09
2023-03-30T23:59:24.704Z,100081.34
